Time;durP1;ratioP1;P1;durP2;ratioP2;P2;SDS_P1;SDS_P2;PMS_P1;PMS_P2;Temp;Humidity;BMP_temperature;BMP_pressure;BME280_temperature;BME280_humidity;BME280_pressure;Samples;Min_cycle;Max_cycle;Signal;HPM_P1;HPM_P2
2022/10/19 00:01:50;;;;;;;22.27;3.90;;;14.00;99.90;;;;;;5094536;28;20040;-67
2022/10/19 00:04:16;;;;;;;24.23;4.35;;;14.10;99.90;;;;;;5094325;28;20095;-67
2022/10/19 00:06:43;;;;;;;18.42;4.55;;;14.20;99.90;;;;;;5094214;28;20094;-67
2022/10/19 00:09:14;;;;;;;19.35;4.47;;;14.30;99.90;;;;;;5094045;28;20016;-68
2022/10/19 00:11:43;;;;;;;16.88;4.45;;;14.20;99.90;;;;;;5094279;28;20444;-67
2022/10/19 00:14:13;;;;;;;20.00;3.90;;;14.10;99.90;;;;;;5094220;28;20026;-67
2022/10/19 00:16:39;;;;;;;23.60;3.92;;;14.10;99.90;;;;;;5093921;28;20446;-66
2022/10/19 00:19:08;;;;;;;16.90;4.82;;;14.10;99.90;;;;;;5094042;28;20472;-66
2022/10/19 00:21:35;;;;;;;19.25;5.78;;;13.80;99.90;;;;;;5094024;28;20044;-67
2022/10/19 00:24:00;;;;;;;19.80;4.93;;;13.60;99.90;;;;;;5093957;28;20032;-66
2022/10/19 00:26:26;;;;;;;16.38;4.20;;;13.40;99.90;;;;;;5079130;28;20029;-67
2022/10/19 00:28:54;;;;;;;22.73;4.53;;;13.10;99.90;;;;;;5093939;28;20043;-66
2022/10/19 00:31:20;;;;;;;21.35;4.28;;;13.00;99.90;;;;;;5093774;28;20505;-66
2022/10/19 00:33:46;;;;;;;17.25;4.20;;;12.90;99.90;;;;;;5093719;28;20158;-67
2022/10/19 00:36:21;;;;;;;27.60;6.07;;;12.80;99.90;;;;;;5093839;28;20157;-67
2022/10/19 00:38:47;;;;;;;20.48;4.20;;;12.70;99.90;;;;;;5093728;28;20036;-68
2022/10/19 00:41:14;;;;;;;19.55;4.78;;;12.70;99.90;;;;;;5093759;28;20024;-69
2022/10/19 00:44:01;;;;;;;22.73;4.53;;;12.80;99.90;;;;;;5093573;28;20046;-69
2022/10/19 00:46:32;;;;;;;23.40;5.47;;;12.90;99.90;;;;;;5093670;28;20023;-67
2022/10/19 00:49:12;;;;;;;22.15;5.20;;;12.90;99.90;;;;;;5093390;28;20035;-68
2022/10/19 00:51:45;;;;;;;22.70;6.10;;;13.00;99.90;;;;;;5093250;28;20050;-67
2022/10/19 00:54:11;;;;;;;21.70;5.07;;;13.00;99.90;;;;;;5075894;28;20098;-71
2022/10/19 00:56:39;;;;;;;20.67;5.25;;;12.80;99.90;;;;;;5093710;28;20020;-68
2022/10/19 00:59:07;;;;;;;17.65;5.32;;;12.70;99.90;;;;;;5093568;28;20046;-72
2022/10/19 01:01:33;;;;;;;26.63;5.20;;;12.60;99.90;;;;;;5093296;28;20109;-72
2022/10/19 01:04:01;;;;;;;16.10;4.53;;;12.40;99.90;;;;;;5093429;28;20032;-73
2022/10/19 01:06:27;;;;;;;21.70;5.38;;;12.40;99.90;;;;;;5093066;28;20020;-66
2022/10/19 01:08:53;;;;;;;16.75;4.65;;;12.40;99.90;;;;;;5093184;28;20393;-66
2022/10/19 01:11:31;;;;;;;16.90;4.40;;;12.30;99.90;;;;;;5093188;28;20024;-66
2022/10/19 01:14:37;;;;;;;31.33;5.05;;;12.30;99.90;;;;;;5093227;28;20111;-66
2022/10/19 01:17:18;;;;;;;17.45;4.53;;;12.20;99.90;;;;;;5042987;28;20145;-66
2022/10/19 01:20:08;;;;;;;29.13;5.75;;;12.10;99.90;;;;;;5093121;28;20108;-66
2022/10/19 01:22:40;;;;;;;18.05;4.53;;;12.20;99.90;;;;;;5092811;28;20060;-66
2022/10/19 01:25:23;;;;;;;20.75;5.07;;;12.20;99.90;;;;;;5088828;28;20078;-66
2022/10/19 01:28:13;;;;;;;19.40;5.20;;;12.20;99.90;;;;;;5084962;28;20052;-67
2022/10/19 01:30:51;;;;;;;17.08;5.00;;;12.20;99.90;;;;;;5068285;28;20484;-67
2022/10/19 01:33:31;;;;;;;19.05;5.00;;;12.10;99.90;;;;;;5092798;28;20094;-66
2022/10/19 01:36:12;;;;;;;26.05;4.90;;;12.10;99.90;;;;;;5092655;28;20111;-66
2022/10/19 01:39:09;;;;;;;23.83;5.97;;;12.20;99.90;;;;;;5092591;28;20024;-67
2022/10/19 01:41:49;;;;;;;22.40;5.07;;;12.10;99.90;;;;;;5080617;28;20404;-72
2022/10/19 01:44:19;;;;;;;20.38;4.95;;;12.10;99.90;;;;;;5072631;28;20048;-73
2022/10/19 01:47:01;;;;;;;17.10;5.13;;;12.00;99.90;;;;;;5072155;28;20032;-71
2022/10/19 01:49:58;;;;;;;19.80;5.32;;;12.10;99.90;;;;;;5065357;28;20025;-70
2022/10/19 01:52:26;;;;;;;23.08;5.78;;;12.20;99.90;;;;;;5069041;28;20031;-66
2022/10/19 01:54:55;;;;;;;21.95;5.10;;;12.60;99.90;;;;;;5078958;28;20029;-67
2022/10/19 01:57:39;;;;;;;19.77;4.68;;;12.90;99.90;;;;;;5079341;28;20034;-70
2022/10/19 02:00:09;;;;;;;15.63;4.63;;;12.80;99.90;;;;;;5079007;28;20037;-67
2022/10/19 02:02:42;;;;;;;16.77;4.68;;;12.70;99.90;;;;;;5079259;28;20129;-67
2022/10/19 02:05:09;;;;;;;20.67;4.70;;;12.60;99.90;;;;;;5078853;28;20044;-66
2022/10/19 02:07:39;;;;;;;19.02;5.43;;;12.20;99.90;;;;;;5079116;28;20086;-67
2022/10/19 02:10:05;;;;;;;19.42;5.25;;;12.30;99.90;;;;;;5079124;28;20032;-66
2022/10/19 02:12:32;;;;;;;29.83;5.40;;;12.40;99.90;;;;;;5079060;28;20016;-66
2022/10/19 02:15:01;;;;;;;18.08;5.45;;;12.70;99.90;;;;;;5079068;28;20048;-66
2022/10/19 02:17:31;;;;;;;22.30;5.35;;;12.60;99.90;;;;;;5078648;28;20104;-68
2022/10/19 02:19:59;;;;;;;25.35;5.05;;;12.70;99.90;;;;;;5078884;28;20029;-66
2022/10/19 02:22:25;;;;;;;22.77;5.53;;;13.00;99.90;;;;;;5078576;28;20048;-66
2022/10/19 02:24:50;;;;;;;24.17;6.15;;;13.00;99.90;;;;;;5078805;28;20523;-66
2022/10/19 02:27:17;;;;;;;21.90;5.78;;;12.80;99.90;;;;;;5078673;28;20040;-67
2022/10/19 02:29:44;;;;;;;21.27;4.90;;;12.80;99.90;;;;;;5060748;28;20028;-66
2022/10/19 02:32:10;;;;;;;22.10;5.32;;;12.70;99.90;;;;;;5078712;28;20039;-66
2022/10/19 02:34:37;;;;;;;25.58;5.68;;;12.10;99.90;;;;;;5078590;28;20107;-66
2022/10/19 02:37:04;;;;;;;16.55;5.03;;;12.10;99.90;;;;;;5060720;28;20497;-66
2022/10/19 02:39:29;;;;;;;20.63;5.22;;;11.90;99.90;;;;;;5078904;28;20380;-66
2022/10/19 02:42:21;;;;;;;25.90;5.68;;;11.70;99.90;;;;;;5078687;28;20029;-66
2022/10/19 02:44:56;;;;;;;20.50;5.90;;;11.70;99.90;;;;;;5078652;28;20032;-66
2022/10/19 02:47:28;;;;;;;24.70;5.60;;;11.70;99.90;;;;;;5078716;28;20473;-66
2022/10/19 02:49:54;;;;;;;26.30;5.35;;;11.80;99.90;;;;;;5078381;28;20028;-67
2022/10/19 02:52:20;;;;;;;24.60;5.10;;;11.80;99.90;;;;;;5078828;28;20028;-67
2022/10/19 02:54:45;;;;;;;27.92;5.20;;;11.80;99.90;;;;;;5078297;28;20085;-67
2022/10/19 02:57:17;;;;;;;21.20;5.80;;;11.90;99.90;;;;;;5078818;28;20040;-66
2022/10/19 02:59:43;;;;;;;;;;;11.70;99.90;;;;;;5058181;28;20443;-67
2022/10/19 03:02:09;;;;;;;19.45;5.05;;;11.70;99.90;;;;;;5075202;28;20046;-66
2022/10/19 03:04:35;;;;;;;23.48;5.53;;;11.80;99.90;;;;;;5075175;28;20086;-66
2022/10/19 03:07:00;;;;;;;23.30;5.65;;;11.60;99.90;;;;;;5075305;28;20162;-67
2022/10/19 03:09:26;;;;;;;17.65;5.70;;;11.60;99.90;;;;;;5075181;28;20033;-67
2022/10/19 03:11:54;;;;;;;13.15;4.63;;;11.60;99.90;;;;;;5075181;28;20035;-66
2022/10/19 03:14:20;;;;;;;17.00;5.78;;;11.60;99.90;;;;;;5075046;28;20060;-66
2022/10/19 03:16:46;;;;;;;17.17;5.25;;;11.60;99.90;;;;;;5074728;28;20063;-66
2022/10/19 03:19:11;;;;;;;15.18;4.72;;;11.60;99.90;;;;;;5075041;28;20020;-67
2022/10/19 03:21:37;;;;;;;19.95;5.18;;;11.60;99.90;;;;;;5075068;28;20033;-66
2022/10/19 03:24:03;;;;;;;24.27;6.47;;;11.60;99.90;;;;;;5074746;28;20477;-68
2022/10/19 03:26:29;;;;;;;17.38;5.05;;;11.50;99.90;;;;;;5057054;28;20392;-67
2022/10/19 03:28:54;;;;;;;15.32;4.97;;;11.60;99.90;;;;;;5074714;28;20041;-66
2022/10/19 03:31:20;;;;;;;21.23;4.63;;;11.50;99.90;;;;;;5074777;28;20025;-66
2022/10/19 03:33:46;;;;;;;15.60;4.90;;;11.40;99.90;;;;;;5074344;28;20056;-66
2022/10/19 03:36:26;;;;;;;16.13;5.13;;;11.50;99.90;;;;;;5074641;28;20017;-66
2022/10/19 03:38:53;;;;;;;21.98;5.25;;;11.60;99.90;;;;;;5074292;28;20036;-67
2022/10/19 03:41:20;;;;;;;25.60;6.00;;;11.70;99.90;;;;;;5074577;28;20107;-67
2022/10/19 03:43:46;;;;;;;12.50;4.97;;;11.60;99.90;;;;;;5074489;28;20036;-67
2022/10/19 03:46:13;;;;;;;19.58;5.55;;;11.50;99.90;;;;;;5074226;28;20103;-67
2022/10/19 03:48:38;;;;;;;19.20;4.93;;;11.50;99.90;;;;;;5074739;28;20028;-67
2022/10/19 03:51:07;;;;;;;19.98;5.28;;;11.60;99.90;;;;;;5074020;28;20024;-68
2022/10/19 03:53:33;;;;;;;11.98;4.80;;;11.40;99.90;;;;;;5057238;28;20047;-71
2022/10/19 03:56:01;;;;;;;18.23;5.35;;;11.30;99.90;;;;;;5074100;28;20036;-67
2022/10/19 03:58:26;;;;;;;13.63;5.25;;;11.40;99.90;;;;;;5074303;28;20013;-67
2022/10/19 04:00:52;;;;;;;23.83;5.30;;;11.40;99.90;;;;;;5073707;28;20036;-66
2022/10/19 04:03:18;;;;;;;15.95;5.15;;;11.10;99.90;;;;;;5074282;28;20024;-66
2022/10/19 04:05:44;;;;;;;15.88;4.90;;;11.10;99.90;;;;;;5074068;28;20020;-67
2022/10/19 04:08:09;;;;;;;17.00;4.70;;;11.10;99.90;;;;;;5074091;28;20033;-67
2022/10/19 04:10:35;;;;;;;23.65;5.75;;;11.00;99.90;;;;;;5073518;28;20020;-66
2022/10/19 04:13:01;;;;;;;19.60;5.25;;;11.10;99.90;;;;;;5074011;28;20025;-67
2022/10/19 04:15:26;;;;;;;21.52;5.22;;;11.20;99.90;;;;;;5073399;28;20016;-67
2022/10/19 04:17:52;;;;;;;30.48;6.22;;;11.20;99.90;;;;;;5073910;28;20103;-67
2022/10/19 04:20:18;;;;;;;22.58;6.35;;;11.10;99.90;;;;;;5073635;28;20017;-67
2022/10/19 04:22:43;;;;;;;15.55;5.05;;;11.20;99.90;;;;;;5073883;28;20400;-66
2022/10/19 04:25:11;;;;;;;24.15;5.10;;;11.20;99.90;;;;;;5073158;28;20021;-67
2022/10/19 04:27:37;;;;;;;18.75;5.75;;;11.10;99.90;;;;;;5073959;28;20488;-66
2022/10/19 04:30:04;;;;;;;21.67;5.40;;;11.10;99.90;;;;;;5073257;28;20469;-66
2022/10/19 04:32:30;;;;;;;22.02;5.70;;;11.30;99.90;;;;;;5059706;28;20021;-66
2022/10/19 04:34:55;;;;;;;18.75;4.85;;;11.40;99.90;;;;;;5073252;28;20051;-68
2022/10/19 04:37:21;;;;;;;21.58;5.50;;;11.50;99.90;;;;;;5073482;28;20021;-66
2022/10/19 04:39:47;;;;;;;19.80;6.07;;;11.40;99.90;;;;;;5073683;28;20020;-66
2022/10/19 04:42:12;;;;;;;17.13;4.80;;;11.20;99.90;;;;;;5073167;28;20186;-67
2022/10/19 04:44:38;;;;;;;19.13;5.60;;;11.00;99.90;;;;;;5073317;28;20071;-67
2022/10/19 04:47:04;;;;;;;16.67;4.60;;;11.10;99.90;;;;;;5073265;28;20059;-66
2022/10/19 04:49:29;;;;;;;14.60;5.10;;;10.90;99.90;;;;;;5059353;28;20016;-66
2022/10/19 04:51:55;;;;;;;19.52;5.20;;;10.90;99.90;;;;;;5073134;28;20028;-68
2022/10/19 04:54:21;;;;;;;18.25;5.53;;;11.00;99.90;;;;;;5073339;28;20020;-66
2022/10/19 04:56:47;;;;;;;19.15;5.40;;;10.90;99.90;;;;;;5073172;28;20034;-71
2022/10/19 04:59:12;;;;;;;18.75;4.93;;;10.80;99.90;;;;;;5073097;28;20020;-69
2022/10/19 05:01:40;;;;;;;18.30;5.50;;;10.80;99.90;;;;;;5073047;28;20396;-67
2022/10/19 05:04:05;;;;;;;23.70;5.60;;;10.80;99.90;;;;;;5073030;28;20025;-67
2022/10/19 05:06:31;;;;;;;27.80;6.65;;;10.90;99.90;;;;;;5072896;28;20087;-67
2022/10/19 05:08:58;;;;;;;22.73;6.40;;;11.00;99.90;;;;;;5072950;28;20020;-67
2022/10/19 05:11:25;;;;;;;22.23;5.70;;;10.80;99.90;;;;;;5072940;28;20028;-66
2022/10/19 05:13:50;;;;;;;28.95;6.32;;;10.80;99.90;;;;;;5072836;28;20095;-67
2022/10/19 05:16:19;;;;;;;18.85;5.38;;;10.80;99.90;;;;;;5072845;28;20476;-68
2022/10/19 05:18:57;;;;;;;26.00;5.90;;;10.70;99.90;;;;;;5072775;28;20484;-70
2022/10/19 05:21:24;;;;;;;21.17;5.65;;;10.70;99.90;;;;;;5072830;28;20031;-72
2022/10/19 05:23:51;;;;;;;21.20;5.60;;;10.60;99.90;;;;;;5072140;28;20025;-71
2022/10/19 05:26:19;;;;;;;15.25;5.82;;;10.70;99.90;;;;;;5072568;28;20036;-71
2022/10/19 05:28:49;;;;;;;19.42;6.32;;;10.80;99.90;;;;;;5072659;28;20519;-70
2022/10/19 05:31:18;;;;;;;21.08;7.25;;;10.70;99.90;;;;;;5072683;28;20036;-71
2022/10/19 05:33:44;;;;;;;18.23;5.93;;;10.70;99.90;;;;;;5072745;28;20020;-71
2022/10/19 05:36:20;;;;;;;19.60;5.63;;;10.60;99.90;;;;;;5072534;28;20032;-71
2022/10/19 05:38:48;;;;;;;24.83;7.05;;;10.70;99.90;;;;;;5072714;28;20032;-70
2022/10/19 05:41:15;;;;;;;23.17;6.72;;;10.60;99.90;;;;;;5072626;28;20396;-71
2022/10/19 05:43:41;;;;;;;30.38;6.82;;;10.60;99.90;;;;;;5072364;28;20041;-71
2022/10/19 05:46:11;;;;;;;28.48;7.95;;;10.60;99.90;;;;;;5072589;28;20127;-72
2022/10/19 05:48:38;;;;;;;22.27;7.72;;;10.50;99.90;;;;;;5072581;28;20107;-72
2022/10/19 05:51:05;;;;;;;35.85;8.55;;;10.60;99.90;;;;;;5072303;28;20046;-72
2022/10/19 05:53:32;;;;;;;31.63;8.98;;;10.60;99.90;;;;;;5072495;28;20025;-71
2022/10/19 05:55:57;;;;;;;30.90;7.82;;;10.70;99.90;;;;;;5072294;28;20039;-70
2022/10/19 05:58:24;;;;;;;24.25;7.50;;;10.60;99.90;;;;;;5072396;28;20029;-71
2022/10/19 06:00:51;;;;;;;24.88;8.30;;;10.70;99.90;;;;;;5072450;28;20064;-71
2022/10/19 06:03:17;;;;;;;27.63;8.50;;;10.70;99.90;;;;;;5072169;28;20496;-73
2022/10/19 06:05:43;;;;;;;28.20;8.88;;;10.80;99.90;;;;;;5072435;28;20055;-71
2022/10/19 06:08:08;;;;;;;29.52;8.13;;;10.80;99.90;;;;;;5071670;28;20029;-67
2022/10/19 06:10:34;;;;;;;25.17;8.65;;;10.60;99.90;;;;;;5072179;28;20033;-71
2022/10/19 06:13:00;;;;;;;24.70;9.40;;;10.40;99.90;;;;;;5065969;28;20065;-68
2022/10/19 06:15:25;;;;;;;35.10;9.90;;;10.40;99.90;;;;;;5046100;28;20040;-67
2022/10/19 06:17:51;;;;;;;27.58;10.15;;;10.60;99.90;;;;;;5066461;28;20033;-71
2022/10/19 06:20:17;;;;;;;28.50;10.93;;;10.60;99.90;;;;;;5063829;28;20048;-68
2022/10/19 06:22:43;;;;;;;29.75;9.85;;;10.50;99.90;;;;;;5071230;28;20035;-71
2022/10/19 06:25:08;;;;;;;28.20;10.77;;;10.50;99.90;;;;;;5069092;28;20013;-68
2022/10/19 06:27:34;;;;;;;27.30;10.18;;;10.50;99.90;;;;;;5071122;28;20068;-67
2022/10/19 06:30:00;;;;;;;25.38;9.20;;;10.40;99.90;;;;;;5067514;28;20512;-67
2022/10/19 06:32:27;;;;;;;25.20;10.50;;;10.40;99.90;;;;;;5071226;28;20111;-72
2022/10/19 06:34:53;;;;;;;25.45;10.65;;;10.40;99.90;;;;;;5073488;28;20035;-71
2022/10/19 06:37:18;;;;;;;28.33;10.43;;;10.40;99.90;;;;;;5074970;28;20021;-70
2022/10/19 06:39:44;;;;;;;33.47;10.88;;;10.50;99.90;;;;;;5074379;28;20397;-71
2022/10/19 06:42:10;;;;;;;32.28;10.50;;;10.80;99.90;;;;;;5074412;28;20110;-71
2022/10/19 06:44:35;;;;;;;23.35;10.63;;;10.90;99.90;;;;;;5075460;28;20099;-71
2022/10/19 06:47:01;;;;;;;29.95;10.75;;;11.10;99.90;;;;;;5075100;28;20424;-71
2022/10/19 06:49:27;;;;;;;29.77;9.88;;;10.80;99.90;;;;;;5074425;28;20070;-71
2022/10/19 06:51:53;;;;;;;30.08;10.13;;;10.70;99.90;;;;;;5063459;28;20074;-71
2022/10/19 06:54:19;;;;;;;17.95;8.45;;;10.70;99.90;;;;;;5074374;28;20548;-69
2022/10/19 06:56:44;;;;;;;23.20;8.15;;;10.70;99.90;;;;;;5072023;28;20028;-67
2022/10/19 06:59:12;;;;;;;21.90;7.32;;;10.60;99.90;;;;;;5073934;28;20042;-69
2022/10/19 07:01:38;;;;;;;26.73;8.38;;;10.70;99.90;;;;;;5064404;28;20111;-71
2022/10/19 07:04:04;;;;;;;21.15;7.93;;;10.80;99.90;;;;;;5073369;28;20130;-67
2022/10/19 07:06:30;;;;;;;34.25;8.35;;;10.70;99.90;;;;;;5074220;28;20116;-71
2022/10/19 07:08:55;;;;;;;21.42;7.75;;;10.70;99.90;;;;;;5074221;28;20036;-71
2022/10/19 07:11:21;;;;;;;20.98;7.78;;;10.80;99.90;;;;;;5074181;28;20073;-69
2022/10/19 07:13:47;;;;;;;23.75;7.93;;;10.90;99.90;;;;;;5080316;28;20461;-71
2022/10/19 07:16:15;;;;;;;30.98;8.52;;;10.90;99.90;;;;;;5074237;28;20028;-72
2022/10/19 07:18:41;;;;;;;25.77;7.38;;;11.00;99.90;;;;;;5074225;28;20056;-71
2022/10/19 07:21:12;;;;;;;20.48;6.80;;;11.10;99.90;;;;;;5049813;28;20048;-71
2022/10/19 07:23:39;;;;;;;20.73;7.57;;;11.30;99.90;;;;;;5071520;28;20044;-72
2022/10/19 07:26:22;;;;;;;23.85;7.30;;;11.50;99.90;;;;;;5070390;28;20025;-69
2022/10/19 07:28:48;;;;;;;27.33;7.53;;;11.30;99.90;;;;;;5073432;28;20499;-71
2022/10/19 07:31:20;;;;;;;34.42;7.50;;;11.30;99.90;;;;;;5074212;28;20587;-72
2022/10/19 07:33:50;;;;;;;;;;;11.30;99.90;;;;;;5070562;28;20068;-72
2022/10/19 07:36:15;;;;;;;26.65;6.45;;;11.40;99.90;;;;;;5073912;28;20015;-72
2022/10/19 07:38:41;;;;;;;17.88;5.80;;;11.40;99.90;;;;;;5069903;28;20520;-71
2022/10/19 07:41:12;;;;;;;22.45;6.60;;;11.40;99.90;;;;;;5071838;28;20055;-71
2022/10/19 07:43:39;;;;;;;21.67;5.88;;;11.50;99.90;;;;;;5071507;28;20038;-72
2022/10/19 07:46:08;;;;;;;16.20;5.40;;;11.50;99.90;;;;;;5070763;28;20031;-70
2022/10/19 07:48:34;;;;;;;23.13;5.97;;;11.60;99.90;;;;;;5073904;28;20044;-72
2022/10/19 07:51:02;;;;;;;23.10;6.60;;;11.80;99.90;;;;;;5061580;28;20037;-72
2022/10/19 07:53:28;;;;;;;19.65;5.68;;;11.80;99.90;;;;;;5072754;28;20017;-72
2022/10/19 07:55:54;;;;;;;19.20;5.30;;;12.10;99.90;;;;;;5073162;28;20031;-72
2022/10/19 07:58:20;;;;;;;17.90;5.28;;;12.30;99.90;;;;;;5073760;28;20028;-71
2022/10/19 08:00:46;;;;;;;22.50;5.07;;;12.40;99.90;;;;;;5073395;28;20039;-71
2022/10/19 08:03:12;;;;;;;20.25;6.10;;;12.30;99.90;;;;;;5073538;28;20037;-72
2022/10/19 08:05:37;;;;;;;23.17;7.97;;;12.40;99.90;;;;;;5074165;28;20096;-72
2022/10/19 08:08:03;;;;;;;22.65;6.47;;;12.80;99.90;;;;;;5073932;28;20056;-71
2022/10/19 08:10:29;;;;;;;26.77;5.13;;;12.70;99.90;;;;;;5073947;28;20020;-71
2022/10/19 08:12:55;;;;;;;19.98;7.25;;;12.80;99.90;;;;;;5074067;28;20082;-71
2022/10/19 08:15:21;;;;;;;28.08;7.25;;;13.00;99.90;;;;;;5073789;28;20104;-70
2022/10/19 08:17:47;;;;;;;19.98;5.45;;;13.10;99.90;;;;;;5074068;28;20028;-71
2022/10/19 08:20:12;;;;;;;17.27;5.45;;;13.20;99.90;;;;;;5072428;28;20028;-72
2022/10/19 08:22:38;;;;;;;17.77;4.60;;;13.30;99.90;;;;;;5066175;28;20040;-72
2022/10/19 08:25:04;;;;;;;17.35;4.30;;;13.60;99.90;;;;;;5042799;28;20061;-72
2022/10/19 08:27:30;;;;;;;17.25;4.28;;;13.50;99.90;;;;;;5070626;28;20024;-72
2022/10/19 08:29:56;;;;;;;20.10;4.30;;;13.60;99.90;;;;;;5073714;28;20434;-72
2022/10/19 08:32:21;;;;;;;16.77;4.22;;;13.80;99.90;;;;;;5073285;28;20016;-72
2022/10/19 08:34:47;;;;;;;20.52;4.65;;;13.40;99.90;;;;;;5073500;28;20024;-72
2022/10/19 08:37:13;;;;;;;15.45;4.50;;;13.60;99.90;;;;;;5073304;28;20477;-72
2022/10/19 08:39:39;;;;;;;12.48;4.40;;;14.10;99.90;;;;;;5073745;28;20115;-72
2022/10/19 08:42:18;;;;;;;27.55;9.00;;;14.30;99.90;;;;;;5073202;28;20114;-72
2022/10/19 08:45:02;;;;;;;16.95;6.88;;;14.00;99.90;;;;;;5062321;28;20029;-71
2022/10/19 08:47:52;;;;;;;20.42;6.88;;;14.10;99.90;;;;;;5055104;28;20032;-72
2022/10/19 08:50:25;;;;;;;28.45;9.05;;;14.40;99.90;;;;;;5072888;28;20024;-72
2022/10/19 08:53:00;;;;;;;20.05;5.85;;;14.50;99.90;;;;;;5073342;28;20039;-72
2022/10/19 08:55:41;;;;;;;19.80;7.63;;;14.70;99.90;;;;;;5072806;28;20078;-72
2022/10/19 08:58:33;;;;;;;16.30;5.25;;;14.60;99.90;;;;;;5072311;28;20037;-71
2022/10/19 09:01:04;;;;;;;13.95;4.35;;;14.50;99.90;;;;;;5073155;28;20070;-72
2022/10/19 09:04:15;;;;;;;19.77;5.90;;;14.60;99.90;;;;;;5055145;28;20481;-71
2022/10/19 09:06:44;;;;;;;16.70;5.05;;;14.50;99.90;;;;;;5052478;28;20032;-71
2022/10/19 09:09:13;;;;;;;23.88;4.53;;;14.70;99.90;;;;;;5067120;28;20020;-70
2022/10/19 09:11:44;;;;;;;18.40;4.55;;;14.90;99.90;;;;;;5069314;28;20028;-72
2022/10/19 09:14:17;;;;;;;20.17;5.43;;;15.10;99.90;;;;;;5072636;28;20032;-71
2022/10/19 09:16:42;;;;;;;16.92;4.75;;;15.30;99.90;;;;;;5072592;28;20051;-67
2022/10/19 09:19:20;;;;;;;27.02;5.22;;;14.90;99.90;;;;;;5072504;28;20056;-67
2022/10/19 09:22:10;;;;;;;27.70;4.85;;;14.80;99.90;;;;;;5072394;28;20468;-67
2022/10/19 09:24:54;;;;;;;48.83;8.35;;;15.00;99.90;;;;;;5054900;28;20036;-67
2022/10/19 09:27:27;;;;;;;27.65;4.50;;;15.00;99.90;;;;;;5072392;28;20081;-69
2022/10/19 09:29:57;;;;;;;20.42;4.50;;;15.30;99.90;;;;;;5067586;28;20032;-68
2022/10/19 09:32:32;;;;;;;26.55;4.68;;;15.30;99.90;;;;;;5068039;28;20032;-68
2022/10/19 09:35:01;;;;;;;19.85;4.13;;;15.70;99.90;;;;;;5070708;28;20021;-68
2022/10/19 09:37:28;;;;;;;13.18;4.50;;;15.50;99.90;;;;;;5070989;28;20028;-68
2022/10/19 09:39:55;;;;;;;27.42;5.20;;;15.60;99.90;;;;;;5071617;28;20024;-67
2022/10/19 09:42:21;;;;;;;14.05;4.15;;;15.60;99.90;;;;;;5071098;28;20036;-69
2022/10/19 09:44:49;;;;;;;17.20;4.07;;;15.80;99.90;;;;;;5071544;28;20041;-71
2022/10/19 09:47:37;;;;;;;17.23;5.03;;;16.10;99.90;;;;;;5071680;28;20043;-71
2022/10/19 09:50:15;;;;;;;23.42;4.53;;;16.20;99.90;;;;;;5062482;28;20115;-70
2022/10/19 09:52:43;;;;;;;23.25;4.18;;;16.30;99.90;;;;;;5069580;28;20048;-69
2022/10/19 09:55:20;;;;;;;17.95;4.85;;;16.70;99.90;;;;;;5068289;28;20025;-71
2022/10/19 09:57:49;;;;;;;14.00;3.65;;;16.50;99.90;;;;;;5065774;28;20218;-72
2022/10/19 10:00:21;;;;;;;18.73;4.53;;;16.50;99.90;;;;;;5071725;28;20025;-72
2022/10/19 10:02:54;;;;;;;14.38;3.63;;;16.50;99.90;;;;;;5071234;28;20079;-72
2022/10/19 10:05:33;;;;;;;12.48;3.78;;;16.50;99.90;;;;;;5056831;28;20013;-72
2022/10/19 10:07:58;;;;;;;12.85;3.72;;;16.60;99.90;;;;;;5053351;28;20028;-72
2022/10/19 10:10:34;;;;;;;17.80;4.10;;;16.70;99.90;;;;;;5075396;28;20645;-72
2022/10/19 10:13:01;;;;;;;17.38;3.95;;;16.90;99.90;;;;;;5073355;28;20025;-71
2022/10/19 10:15:34;;;;;;;22.30;4.55;;;17.10;99.90;;;;;;5074720;28;20375;-67
2022/10/19 10:18:00;;;;;;;15.93;4.10;;;17.20;99.90;;;;;;5068498;28;20032;-67
2022/10/19 10:20:29;;;;;;;12.15;3.70;;;17.30;99.90;;;;;;5076028;28;20054;-67
2022/10/19 10:23:01;;;;;;;14.63;3.58;;;17.50;99.90;;;;;;5073027;28;20032;-67
2022/10/19 10:25:33;;;;;;;12.18;3.33;;;17.60;99.90;;;;;;5075261;28;20127;-67
2022/10/19 10:28:02;;;;;;;18.63;4.20;;;18.10;99.90;;;;;;5075733;28;20055;-67
2022/10/19 10:30:33;;;;;;;36.90;6.03;;;18.30;99.90;;;;;;5075372;28;20020;-67
2022/10/19 10:33:00;;;;;;;22.13;4.10;;;18.40;99.90;;;;;;5049679;28;20036;-67
2022/10/19 10:35:34;;;;;;;19.02;4.72;;;18.50;99.90;;;;;;5039955;28;20033;-67
2022/10/19 10:38:34;;;;;;;16.00;4.00;;;18.20;99.90;;;;;;5062639;28;20028;-67
2022/10/19 10:41:03;;;;;;;11.75;3.78;;;18.70;99.90;;;;;;5059365;28;20405;-67
2022/10/19 10:43:32;;;;;;;12.25;4.20;;;18.80;99.90;;;;;;5051317;28;20094;-67
2022/10/19 10:46:07;;;;;;;16.48;4.35;;;19.30;99.90;;;;;;5074307;28;20492;-64
2022/10/19 10:48:43;;;;;;;14.80;3.88;;;19.60;99.90;;;;;;5066803;28;20082;-67
2022/10/19 10:51:28;;;;;;;18.33;3.63;;;19.70;99.90;;;;;;5061059;28;20029;-64
2022/10/19 10:54:19;;;;;;;12.27;4.72;;;19.90;99.90;;;;;;5064606;28;20096;-66
2022/10/19 10:57:15;;;;;;;14.70;4.82;;;19.70;99.90;;;;;;5074038;28;20032;-64
2022/10/19 10:59:46;;;;;;;20.98;5.25;;;20.00;99.90;;;;;;5074343;28;20032;-65
2022/10/19 11:02:33;;;;;;;26.17;5.03;;;20.20;99.90;;;;;;5071033;28;20183;-65
2022/10/19 11:05:16;;;;;;;14.88;4.65;;;20.10;99.90;;;;;;5071819;28;20024;-65
2022/10/19 11:07:45;;;;;;;39.20;6.85;;;20.00;99.90;;;;;;5073952;28;20021;-65
2022/10/19 11:10:38;;;;;;;14.85;4.00;;;20.40;99.90;;;;;;5074453;28;20048;-65
2022/10/19 11:13:19;;;;;;;15.45;5.45;;;20.60;99.90;;;;;;5026464;28;20547;-65
2022/10/19 11:15:45;;;;;;;;;;;20.90;99.30;;;;;;5071907;28;20064;-65
2022/10/19 11:18:33;;;;;;;11.32;3.92;;;20.50;99.90;;;;;;5074274;28;20434;-65
2022/10/19 11:20:58;;;;;;;13.38;4.82;;;20.10;99.90;;;;;;5073016;28;20056;-65
2022/10/19 11:23:50;;;;;;;16.98;5.03;;;20.20;99.90;;;;;;5073978;28;20385;-65
2022/10/19 11:26:52;;;;;;;17.55;5.28;;;20.40;99.90;;;;;;5064670;28;20067;-65
2022/10/19 11:29:31;;;;;;;11.60;4.38;;;21.40;99.50;;;;;;5070659;28;20103;-65
2022/10/19 11:31:57;;;;;;;17.15;6.43;;;21.20;98.60;;;;;;5069256;28;20136;-66
2022/10/19 11:34:51;;;;;;;13.48;3.70;;;21.70;97.90;;;;;;5073794;28;20031;-65
2022/10/19 11:37:38;;;;;;;14.50;4.28;;;21.60;99.90;;;;;;5073110;28;20044;-65
2022/10/19 11:40:33;;;;;;;15.27;4.70;;;22.20;98.50;;;;;;5066538;28;20070;-67
2022/10/19 11:43:03;;;;;;;14.93;3.85;;;22.90;97.30;;;;;;5056313;28;20091;-67
2022/10/19 11:45:32;;;;;;;11.65;4.18;;;23.10;96.30;;;;;;5073883;28;20485;-67
2022/10/19 11:48:12;;;;;;;12.35;4.90;;;22.70;96.70;;;;;;5074493;28;20519;-67
2022/10/19 11:50:55;;;;;;;17.08;4.40;;;22.30;96.80;;;;;;5074385;28;20029;-68
2022/10/19 11:53:51;;;;;;;13.57;4.80;;;22.60;97.00;;;;;;5074640;28;20025;-67
2022/10/19 11:56:32;;;;;;;17.23;4.03;;;23.60;95.60;;;;;;5074575;28;20108;-67
2022/10/19 11:59:18;;;;;;;11.73;4.47;;;23.10;95.80;;;;;;5074266;28;20040;-68
2022/10/19 12:02:01;;;;;;;17.42;4.63;;;23.20;96.00;;;;;;5074096;28;20481;-67
2022/10/19 12:05:03;;;;;;;13.90;4.63;;;23.40;95.60;;;;;;5074303;28;20124;-67
2022/10/19 12:07:48;;;;;;;19.67;4.60;;;22.80;95.80;;;;;;5064446;28;20373;-67
2022/10/19 12:10:24;;;;;;;18.25;4.68;;;22.60;96.90;;;;;;5073941;28;20401;-67
2022/10/19 12:12:55;;;;;;;10.63;3.67;;;22.90;95.90;;;;;;5073831;28;20070;-67
2022/10/19 12:15:29;;;;;;;12.95;3.90;;;23.20;96.00;;;;;;5073942;28;20077;-68
2022/10/19 12:18:09;;;;;;;12.68;4.65;;;23.10;95.70;;;;;;5056300;28;20161;-67
2022/10/19 12:20:41;;;;;;;16.77;4.10;;;23.70;94.30;;;;;;5074048;28;20115;-67
2022/10/19 12:23:28;;;;;;;13.90;4.38;;;24.30;93.90;;;;;;5073910;28;20077;-67
2022/10/19 12:25:57;;;;;;;8.43;3.90;;;23.80;94.10;;;;;;5061402;28;20039;-67
2022/10/19 12:28:35;;;;;;;14.15;4.38;;;23.90;94.80;;;;;;5073526;28;20032;-67
2022/10/19 12:31:03;;;;;;;8.70;3.53;;;24.60;93.40;;;;;;5073671;28;20370;-67
2022/10/19 12:33:39;;;;;;;11.88;4.45;;;24.40;93.30;;;;;;5073508;28;20024;-67
2022/10/19 12:36:21;;;;;;;10.60;4.55;;;23.50;94.60;;;;;;5074100;28;20043;-67
2022/10/19 12:39:04;;;;;;;15.27;4.53;;;23.70;94.70;;;;;;5073328;28;20107;-67
2022/10/19 12:41:43;;;;;;;11.88;4.15;;;24.10;93.70;;;;;;5055371;28;20051;-67
2022/10/19 12:44:23;;;;;;;9.05;4.10;;;24.10;93.60;;;;;;5073411;28;20134;-67
2022/10/19 12:46:52;;;;;;;14.82;4.07;;;24.00;94.00;;;;;;5073432;28;20032;-67
2022/10/19 12:49:35;;;;;;;78.38;11.82;;;24.50;92.90;;;;;;5073057;28;20107;-67
2022/10/19 12:52:01;;;;;;;18.15;4.53;;;24.80;92.60;;;;;;5073270;28;20027;-67
2022/10/19 12:54:30;;;;;;;17.30;6.20;;;25.30;92.10;;;;;;5073039;28;20023;-67
2022/10/19 12:56:57;;;;;;;36.83;7.45;;;26.10;91.30;;;;;;5072962;28;20089;-67
2022/10/19 12:59:27;;;;;;;12.10;5.88;;;26.10;90.60;;;;;;5073391;28;20098;-67